Time;durP1;ratioP1;P1;durP2;ratioP2;P2;SDS_P1;SDS_P2;PMS_P1;PMS_P2;Temp;Humidity;BMP_temperature;BMP_pressure;BME280_temperature;BME280_humidity;BME280_pressure;Samples;Min_cycle;Max_cycle;Signal;HPM_P1;HPM_P2
2021/12/26 00:00:13;;;;;;;15.32;9.95;;;3.20;99.90;;;;;;5073498;28;20158;-78
2021/12/26 00:02:39;;;;;;;16.00;9.85;;;3.20;99.90;;;;;;5065093;28;20029;-77
2021/12/26 00:05:06;;;;;;;16.63;10.73;;;3.20;99.90;;;;;;5053514;28;20051;-77
2021/12/26 00:07:32;;;;;;;18.98;10.35;;;3.10;99.90;;;;;;5052755;28;20017;-79
2021/12/26 00:09:58;;;;;;;15.52;9.80;;;3.10;99.90;;;;;;5052025;28;20028;-80
2021/12/26 00:12:23;;;;;;;15.07;10.10;;;3.10;99.90;;;;;;5054795;28;20029;-79
2021/12/26 00:14:49;;;;;;;15.35;10.43;;;3.10;99.90;;;;;;5072061;28;20063;-79
2021/12/26 00:17:15;;;;;;;16.35;10.30;;;3.10;99.90;;;;;;5066180;28;20032;-81
2021/12/26 00:19:41;;;;;;;15.02;9.73;;;3.10;99.90;;;;;;5037132;28;20258;-79
2021/12/26 00:22:06;;;;;;;14.43;9.93;;;3.10;99.90;;;;;;5055928;28;20517;-77
2021/12/26 00:24:33;;;;;;;17.65;11.00;;;3.10;99.90;;;;;;5063480;28;20114;-78
2021/12/26 00:26:58;;;;;;;14.20;9.82;;;3.10;99.90;;;;;;5037789;28;20504;-78
2021/12/26 00:29:24;;;;;;;18.20;11.30;;;3.10;99.90;;;;;;5055679;28;20033;-78
2021/12/26 00:31:50;;;;;;;16.15;10.40;;;3.10;99.90;;;;;;5055824;28;20033;-78
2021/12/26 00:34:16;;;;;;;15.55;9.85;;;3.10;99.90;;;;;;5066585;28;20024;-79
2021/12/26 00:36:46;;;;;;;15.35;10.07;;;3.10;99.90;;;;;;5076449;28;20397;-81
2021/12/26 00:39:14;;;;;;;16.70;10.32;;;3.10;99.90;;;;;;5059954;28;20021;-81
2021/12/26 00:41:40;;;;;;;15.75;10.77;;;3.10;99.90;;;;;;5057554;28;20025;-80
2021/12/26 00:44:16;;;;;;;16.60;10.18;;;3.10;99.90;;;;;;5072150;28;20044;-81
2021/12/26 00:46:45;;;;;;;16.83;10.70;;;3.10;99.90;;;;;;5089166;28;20025;-81
2021/12/26 00:49:25;;;;;;;16.75;10.88;;;3.10;99.90;;;;;;5069812;28;20501;-81
2021/12/26 00:51:51;;;;;;;15.38;10.68;;;3.10;99.90;;;;;;5065823;28;20059;-83
2021/12/26 00:54:20;;;;;;;16.83;11.43;;;3.10;99.90;;;;;;5051303;28;20029;-81
2021/12/26 00:56:46;;;;;;;17.33;10.88;;;3.10;99.90;;;;;;5072664;28;20021;-81
2021/12/26 00:59:12;;;;;;;17.27;11.60;;;3.10;99.90;;;;;;5054118;28;20032;-82
2021/12/26 01:01:37;;;;;;;15.82;10.82;;;3.10;99.90;;;;;;5071902;28;20021;-82
2021/12/26 01:04:03;;;;;;;19.23;12.20;;;3.00;99.90;;;;;;5069825;28;20021;-82
2021/12/26 01:06:29;;;;;;;20.77;13.35;;;3.00;99.90;;;;;;5065478;28;20047;-79
2021/12/26 01:08:55;;;;;;;17.65;12.35;;;3.00;99.90;;;;;;5076847;28;20020;-82
2021/12/26 01:11:39;;;;;;;22.05;13.43;;;3.10;99.90;;;;;;5075145;28;20028;-82
2021/12/26 01:14:08;;;;;;;18.17;11.57;;;3.00;99.90;;;;;;5075296;28;20021;-80
2021/12/26 01:16:35;;;;;;;19.42;12.45;;;3.00;99.90;;;;;;5072113;28;20343;-82
2021/12/26 01:19:07;;;;;;;18.27;12.48;;;3.00;99.90;;;;;;5048017;28;20036;-81
2021/12/26 01:21:34;;;;;;;19.77;12.75;;;3.00;99.90;;;;;;5048639;28;20029;-82
2021/12/26 01:24:05;;;;;;;17.20;11.90;;;3.00;99.90;;;;;;5066996;28;20040;-82
2021/12/26 01:26:31;;;;;;;18.38;12.45;;;3.10;99.90;;;;;;5082749;28;20032;-84
2021/12/26 01:28:56;;;;;;;19.27;12.57;;;3.20;99.90;;;;;;5069242;28;20021;-82
2021/12/26 01:31:23;;;;;;;19.58;12.45;;;3.20;99.90;;;;;;5089109;28;20074;-79
2021/12/26 01:34:01;;;;;;;18.67;12.20;;;3.20;99.90;;;;;;5094270;28;20085;-80
2021/12/26 01:36:28;;;;;;;21.98;13.82;;;3.20;99.90;;;;;;5079959;28;20024;-82
2021/12/26 01:38:56;;;;;;;18.65;12.77;;;3.20;99.90;;;;;;5072687;28;20083;-81
2021/12/26 01:41:23;;;;;;;18.20;12.93;;;3.20;99.90;;;;;;5071483;28;20021;-82
2021/12/26 01:43:52;;;;;;;19.40;13.38;;;3.20;99.90;;;;;;5070751;28;20024;-82
2021/12/26 01:46:18;;;;;;;18.85;12.90;;;3.20;99.90;;;;;;5069693;28;20020;-82
2021/12/26 01:48:44;;;;;;;19.90;12.88;;;3.30;99.90;;;;;;5069473;28;20032;-82
2021/12/26 01:51:10;;;;;;;21.33;13.52;;;3.30;99.90;;;;;;5070291;28;20085;-81
2021/12/26 01:53:38;;;;;;;21.48;13.73;;;3.30;99.90;;;;;;5068366;28;20079;-81
2021/12/26 01:56:08;;;;;;;21.33;13.55;;;3.30;99.90;;;;;;5069437;28;20098;-82
2021/12/26 01:58:36;;;;;;;18.67;12.80;;;3.30;99.90;;;;;;5066166;28;20025;-83
2021/12/26 02:01:10;;;;;;;19.25;13.25;;;3.30;99.90;;;;;;5049200;28;20088;-82
2021/12/26 02:03:37;;;;;;;17.98;12.35;;;3.30;99.90;;;;;;5065715;28;20017;-81
2021/12/26 02:06:05;;;;;;;18.60;11.85;;;3.20;99.90;;;;;;5065684;28;20035;-82
2021/12/26 02:08:30;;;;;;;15.55;11.32;;;3.30;99.90;;;;;;5069357;28;20021;-80
2021/12/26 02:11:00;;;;;;;14.95;10.82;;;3.30;99.90;;;;;;5073709;28;20052;-80
2021/12/26 02:13:27;;;;;;;15.90;10.68;;;3.30;99.90;;;;;;5074571;28;20013;-80
2021/12/26 02:15:53;;;;;;;14.70;10.10;;;3.40;99.90;;;;;;5084243;28;20029;-82
2021/12/26 02:18:19;;;;;;;13.00;9.50;;;3.30;99.90;;;;;;5082622;28;20029;-82
2021/12/26 02:23:25;;;;;;;14.10;9.45;;;3.40;99.90;;;;;;5069918;28;20029;-82
2021/12/26 02:28:28;;;;;;;12.75;9.32;;;3.40;99.90;;;;;;5088294;28;20021;-82
2021/12/26 02:30:56;;;;;;;13.52;9.68;;;3.40;99.90;;;;;;5086652;28;20048;-83
2021/12/26 02:33:22;;;;;;;13.23;8.75;;;3.40;99.90;;;;;;5087636;28;20024;-82
2021/12/26 02:35:49;;;;;;;14.52;9.32;;;3.50;99.90;;;;;;5084701;28;20093;-82
2021/12/26 02:38:16;;;;;;;12.88;8.88;;;3.50;99.90;;;;;;5067337;28;20016;-82
2021/12/26 02:40:44;;;;;;;14.15;9.55;;;3.50;99.90;;;;;;5068039;28;20048;-81
2021/12/26 02:43:10;;;;;;;15.43;10.32;;;3.50;99.90;;;;;;5065038;28;20017;-83
2021/12/26 02:45:36;;;;;;;16.75;11.23;;;3.50;99.90;;;;;;5046661;28;20060;-82
2021/12/26 02:48:02;;;;;;;15.13;10.48;;;3.50;99.90;;;;;;5063025;28;20047;-83
2021/12/26 02:50:31;;;;;;;16.65;11.07;;;3.50;99.90;;;;;;5065319;28;20025;-83
2021/12/26 02:53:02;;;;;;;16.48;10.65;;;3.40;99.90;;;;;;5066238;28;20050;-83
2021/12/26 02:55:28;;;;;;;16.83;10.73;;;3.40;99.90;;;;;;5066292;28;20055;-83
2021/12/26 02:57:59;;;;;;;17.20;11.00;;;3.30;99.90;;;;;;5065121;28;20021;-83
2021/12/26 03:00:30;;;;;;;13.77;9.90;;;3.30;99.90;;;;;;5065891;28;20074;-82
2021/12/26 03:02:59;;;;;;;14.40;9.95;;;3.20;99.90;;;;;;5064617;28;20022;-83
2021/12/26 03:05:29;;;;;;;14.35;9.88;;;3.20;99.90;;;;;;5070053;28;20089;-82
2021/12/26 03:07:56;;;;;;;15.95;10.00;;;3.30;99.90;;;;;;5086512;28;20071;-83
2021/12/26 03:10:25;;;;;;;14.50;9.93;;;3.30;99.90;;;;;;5086564;28;20040;-83
2021/12/26 03:12:56;;;;;;;13.50;8.95;;;3.30;99.90;;;;;;5085850;28;20041;-83
2021/12/26 03:15:23;;;;;;;13.75;9.82;;;3.30;99.90;;;;;;5084193;28;20031;-83
2021/12/26 03:17:49;;;;;;;14.82;10.57;;;3.30;99.90;;;;;;5079696;28;20029;-83
2021/12/26 03:20:19;;;;;;;15.85;10.95;;;3.30;99.90;;;;;;5064265;28;20383;-83
2021/12/26 03:22:45;;;;;;;14.32;10.10;;;3.30;99.90;;;;;;5076008;28;20473;-81
2021/12/26 03:25:21;;;;;;;15.70;10.88;;;3.20;99.90;;;;;;5065495;28;20079;-81
2021/12/26 03:27:48;;;;;;;14.25;9.90;;;3.20;99.90;;;;;;5084621;28;20430;-82
2021/12/26 03:30:18;;;;;;;15.00;9.93;;;3.30;99.90;;;;;;5084304;28;20040;-82
2021/12/26 03:32:44;;;;;;;16.05;10.82;;;3.30;99.90;;;;;;5067195;28;20079;-81
2021/12/26 03:35:10;;;;;;;13.82;10.05;;;3.30;99.90;;;;;;5085302;28;20107;-81
2021/12/26 03:37:37;;;;;;;14.32;9.65;;;3.30;99.90;;;;;;5084405;28;20035;-80
2021/12/26 03:40:04;;;;;;;15.95;10.20;;;3.30;99.90;;;;;;5067816;28;20056;-81
2021/12/26 03:42:31;;;;;;;16.23;10.73;;;3.30;99.90;;;;;;5070784;28;20021;-82
2021/12/26 03:44:58;;;;;;;14.30;9.68;;;3.30;99.90;;;;;;5068108;28;20025;-82
2021/12/26 03:47:24;;;;;;;16.15;11.00;;;3.30;99.90;;;;;;5071173;28;20025;-80
2021/12/26 03:49:50;;;;;;;16.75;11.05;;;3.30;99.90;;;;;;5075086;28;20017;-82
2021/12/26 03:52:17;;;;;;;16.13;11.15;;;3.20;99.90;;;;;;5070975;28;20031;-82
2021/12/26 03:54:43;;;;;;;18.10;11.40;;;3.20;99.90;;;;;;5067381;28;20059;-83
2021/12/26 03:57:08;;;;;;;16.50;11.57;;;3.20;99.90;;;;;;5078279;28;20029;-79
2021/12/26 03:59:37;;;;;;;19.30;11.25;;;3.20;99.90;;;;;;5077318;28;20033;-82
2021/12/26 04:02:03;;;;;;;18.23;12.13;;;3.20;99.90;;;;;;5069561;28;20018;-82
2021/12/26 04:04:28;;;;;;;20.90;13.00;;;3.20;99.90;;;;;;5073652;28;20024;-82
2021/12/26 04:06:54;;;;;;;18.10;12.13;;;3.20;99.90;;;;;;5070948;28;20089;-83
2021/12/26 04:09:20;;;;;;;18.45;12.10;;;3.10;99.90;;;;;;5071649;28;20020;-81
2021/12/26 04:11:46;;;;;;;20.33;12.50;;;3.10;99.90;;;;;;5058400;28;20025;-80
2021/12/26 04:14:16;;;;;;;19.60;11.95;;;3.10;99.90;;;;;;5077967;28;20013;-80
2021/12/26 04:16:42;;;;;;;18.73;11.55;;;3.10;99.90;;;;;;5116487;22;20055;-79
2021/12/26 04:19:08;;;;;;;20.75;11.65;;;3.10;99.90;;;;;;5041236;28;20040;-80
2021/12/26 04:21:34;;;;;;;18.15;11.70;;;3.10;99.90;;;;;;5044600;28;20096;-81
2021/12/26 04:24:02;;;;;;;19.10;12.13;;;3.10;99.90;;;;;;5030653;28;20038;-81
2021/12/26 04:26:28;;;;;;;18.38;11.38;;;3.10;99.90;;;;;;5044355;28;20029;-80
2021/12/26 04:28:54;;;;;;;17.35;10.55;;;3.20;99.90;;;;;;5063694;28;20032;-80
2021/12/26 04:31:20;;;;;;;16.25;10.90;;;3.20;99.90;;;;;;5070569;28;20118;-81
2021/12/26 04:33:46;;;;;;;16.17;10.18;;;3.30;99.90;;;;;;5069108;28;20059;-80
2021/12/26 04:36:13;;;;;;;16.27;10.38;;;3.40;99.90;;;;;;5069712;28;20059;-80
2021/12/26 04:38:39;;;;;;;16.23;10.63;;;3.40;99.90;;;;;;5068451;28;20048;-80
2021/12/26 04:41:06;;;;;;;15.70;9.93;;;3.40;99.90;;;;;;5066370;28;20548;-81
2021/12/26 04:43:35;;;;;;;17.75;9.45;;;3.40;99.90;;;;;;5065495;28;20025;-80
2021/12/26 04:46:05;;;;;;;15.82;9.52;;;3.40;99.90;;;;;;5063905;28;20104;-81
2021/12/26 04:48:32;;;;;;;17.15;11.45;;;3.40;99.90;;;;;;5067269;28;20041;-81
2021/12/26 04:50:58;;;;;;;16.10;10.80;;;3.30;99.90;;;;;;5065519;28;20036;-80
2021/12/26 04:53:24;;;;;;;17.52;11.20;;;3.20;99.90;;;;;;5045448;28;20029;-80
2021/12/26 04:55:50;;;;;;;19.95;11.85;;;3.20;99.90;;;;;;5064879;28;20028;-80
2021/12/26 04:58:15;;;;;;;17.63;11.27;;;3.10;99.90;;;;;;5062937;28;20118;-81
2021/12/26 05:00:41;;;;;;;18.83;11.70;;;3.00;99.90;;;;;;5063363;28;20108;-81
2021/12/26 05:03:08;;;;;;;18.27;11.15;;;3.00;99.90;;;;;;5064693;28;20037;-81
2021/12/26 05:05:35;;;;;;;20.10;11.82;;;3.00;99.90;;;;;;5064849;28;20032;-80
2021/12/26 05:08:02;;;;;;;20.48;12.30;;;3.00;99.90;;;;;;5065271;28;20491;-80
2021/12/26 05:10:29;;;;;;;20.20;12.13;;;3.00;99.90;;;;;;5060020;28;20020;-80
2021/12/26 05:12:59;;;;;;;20.40;11.57;;;3.00;99.90;;;;;;5041699;28;20061;-80
2021/12/26 05:15:26;;;;;;;18.67;11.20;;;3.00;99.90;;;;;;5059093;28;20048;-80
2021/12/26 05:17:53;;;;;;;22.98;12.95;;;3.00;99.90;;;;;;5060393;28;20033;-80
2021/12/26 05:20:20;;;;;;;17.80;11.35;;;2.90;99.90;;;;;;5050763;28;20045;-81
2021/12/26 05:22:47;;;;;;;19.60;12.00;;;2.90;99.90;;;;;;5063186;28;20355;-81
2021/12/26 05:25:13;;;;;;;21.52;11.60;;;3.00;99.90;;;;;;5064809;28;20027;-81
2021/12/26 05:27:39;;;;;;;19.60;12.13;;;3.00;99.90;;;;;;5062865;28;20029;-81
2021/12/26 05:30:08;;;;;;;15.48;10.07;;;3.00;99.90;;;;;;5044619;28;20119;-81
2021/12/26 05:32:34;;;;;;;18.58;12.07;;;3.00;99.90;;;;;;5045267;28;20386;-81
2021/12/26 05:35:00;;;;;;;19.45;11.73;;;3.00;99.90;;;;;;5063255;28;20029;-81
2021/12/26 05:37:25;;;;;;;18.42;11.05;;;3.10;99.90;;;;;;5063273;28;20028;-80
2021/12/26 05:39:51;;;;;;;19.13;11.15;;;3.20;99.90;;;;;;5068870;28;20040;-79
2021/12/26 05:42:17;;;;;;;20.95;11.70;;;3.20;99.90;;;;;;5046191;28;20044;-80
2021/12/26 05:44:44;;;;;;;16.77;10.38;;;3.20;99.90;;;;;;5037755;28;20105;-80
2021/12/26 05:47:11;;;;;;;19.80;11.23;;;3.30;99.90;;;;;;5019465;28;20033;-80
2021/12/26 05:49:37;;;;;;;12.85;8.90;;;3.30;99.90;;;;;;5047882;28;20029;-80
2021/12/26 05:52:03;;;;;;;13.27;9.55;;;3.40;99.90;;;;;;5058339;28;20025;-80
2021/12/26 05:54:29;;;;;;;17.73;9.88;;;3.40;99.90;;;;;;5060954;28;20035;-81
2021/12/26 05:56:54;;;;;;;12.32;9.48;;;3.40;99.90;;;;;;5063246;28;20099;-81
2021/12/26 05:59:20;;;;;;;14.68;9.90;;;3.40;99.90;;;;;;5061191;28;20052;-81
2021/12/26 06:01:46;;;;;;;14.32;9.75;;;3.30;99.90;;;;;;5065969;28;20099;-81
2021/12/26 06:04:11;;;;;;;14.40;10.05;;;3.20;99.90;;;;;;5064294;28;20027;-81
2021/12/26 06:06:37;;;;;;;14.93;9.73;;;3.20;99.90;;;;;;5064360;28;20065;-81
2021/12/26 06:09:04;;;;;;;14.57;9.85;;;3.10;99.90;;;;;;5061755;28;20361;-81
2021/12/26 06:11:30;;;;;;;14.30;8.88;;;3.20;99.90;;;;;;5061226;28;20072;-81
2021/12/26 06:13:55;;;;;;;13.95;9.05;;;3.30;99.90;;;;;;5061600;28;20083;-80
2021/12/26 06:16:22;;;;;;;12.00;8.43;;;3.30;99.90;;;;;;5062070;28;20025;-81
2021/12/26 06:18:47;;;;;;;12.82;8.52;;;3.40;99.90;;;;;;5062168;28;20029;-80
2021/12/26 06:21:13;;;;;;;14.68;9.13;;;3.40;99.90;;;;;;5061467;28;20033;-82
2021/12/26 06:23:39;;;;;;;11.05;7.30;;;3.40;99.90;;;;;;5062939;28;20389;-81
2021/12/26 06:26:04;;;;;;;10.70;7.30;;;3.40;99.90;;;;;;5062523;28;20021;-81
2021/12/26 06:28:30;;;;;;;10.55;6.93;;;3.40;99.90;;;;;;5062260;28;20045;-81
2021/12/26 06:30:56;;;;;;;10.48;6.80;;;3.50;99.90;;;;;;5044103;28;20058;-81
2021/12/26 06:33:22;;;;;;;11.07;7.25;;;3.50;99.90;;;;;;5061857;28;20036;-81
2021/12/26 06:35:49;;;;;;;10.25;7.15;;;3.50;99.90;;;;;;5062874;28;20048;-80
2021/12/26 06:38:16;;;;;;;8.57;6.60;;;3.50;99.90;;;;;;5059286;28;20049;-80
2021/12/26 06:40:41;;;;;;;10.68;7.78;;;3.60;99.90;;;;;;5037071;28;20021;-81
2021/12/26 06:43:08;;;;;;;9.40;6.82;;;3.50;99.90;;;;;;5054031;28;20054;-80
2021/12/26 06:45:34;;;;;;;11.07;7.22;;;3.50;99.90;;;;;;5056618;28;20022;-81
2021/12/26 06:48:02;;;;;;;11.38;7.93;;;3.50;99.90;;;;;;5056506;28;20116;-80
2021/12/26 06:50:29;;;;;;;11.48;8.23;;;3.40;99.90;;;;;;5039757;28;20024;-80
2021/12/26 06:52:55;;;;;;;10.63;7.13;;;3.30;99.90;;;;;;5058493;28;20083;-80
2021/12/26 06:55:21;;;;;;;11.63;7.88;;;3.30;99.90;;;;;;5058405;28;20049;-79
2021/12/26 06:57:47;;;;;;;12.73;8.70;;;3.30;99.90;;;;;;5059601;28;20029;-79
2021/12/26 07:00:16;;;;;;;12.95;8.43;;;3.10;99.90;;;;;;5046594;28;20048;-80
2021/12/26 07:02:42;;;;;;;11.95;7.72;;;3.10;99.90;;;;;;5067481;28;20029;-80
2021/12/26 07:05:11;;;;;;;12.88;8.30;;;3.20;99.90;;;;;;5067331;28;20012;-81
2021/12/26 07:07:37;;;;;;;13.93;8.25;;;3.20;99.90;;;;;;5042946;28;20049;-80
2021/12/26 07:10:03;;;;;;;11.93;8.00;;;3.20;99.90;;;;;;5055470;28;20390;-80
2021/12/26 07:12:29;;;;;;;10.80;7.35;;;3.30;99.90;;;;;;5048609;28;20035;-80
2021/12/26 07:14:55;;;;;;;11.65;8.00;;;3.30;99.90;;;;;;5040501;28;20033;-79
2021/12/26 07:17:20;;;;;;;13.13;8.05;;;3.20;99.90;;;;;;5040675;28;20033;-81
2021/12/26 07:19:46;;;;;;;12.27;8.25;;;3.10;99.90;;;;;;5041581;28;20029;-81
2021/12/26 07:22:12;;;;;;;14.10;9.10;;;3.10;99.90;;;;;;5044670;28;20021;-81
2021/12/26 07:24:43;;;;;;;12.73;7.97;;;3.10;99.90;;;;;;5059885;28;20025;-80
2021/12/26 07:27:15;;;;;;;11.15;8.15;;;3.00;99.90;;;;;;5061494;28;20075;-80
2021/12/26 07:29:41;;;;;;;13.10;8.27;;;3.10;99.90;;;;;;5061896;28;20029;-80
2021/12/26 07:32:10;;;;;;;11.20;7.40;;;3.10;99.90;;;;;;5044379;28;20044;-79
2021/12/26 07:34:36;;;;;;;14.32;8.85;;;3.20;99.90;;;;;;5042365;28;20026;-79
2021/12/26 07:37:02;;;;;;;12.60;8.35;;;3.30;99.90;;;;;;5047654;28;20523;-79
2021/12/26 07:39:28;;;;;;;12.55;8.02;;;3.40;99.90;;;;;;5059330;28;20059;-79
2021/12/26 07:41:54;;;;;;;11.75;7.38;;;3.40;99.90;;;;;;5041885;28;20021;-78
2021/12/26 07:44:20;;;;;;;12.82;7.97;;;3.50;99.90;;;;;;5056655;28;20051;-79
2021/12/26 07:46:46;;;;;;;12.23;7.93;;;3.40;99.90;;;;;;5043387;28;20120;-80
2021/12/26 07:49:11;;;;;;;10.63;7.13;;;3.40;99.90;;;;;;5060614;28;20028;-80
2021/12/26 07:51:37;;;;;;;11.30;7.55;;;3.50;99.90;;;;;;5061166;28;20049;-79
2021/12/26 07:54:03;;;;;;;11.88;8.30;;;3.50;99.90;;;;;;5045334;28;20051;-80
2021/12/26 07:56:31;;;;;;;11.02;7.70;;;3.40;99.90;;;;;;5060701;28;20056;-80
2021/12/26 07:58:57;;;;;;;12.65;7.15;;;3.20;99.90;;;;;;5061489;28;20021;-79
2021/12/26 08:01:26;;;;;;;9.45;6.72;;;3.30;99.90;;;;;;5063811;28;20046;-80
2021/12/26 08:03:52;;;;;;;9.70;6.30;;;3.30;99.90;;;;;;5043677;28;20112;-80
2021/12/26 08:06:19;;;;;;;9.77;7.15;;;3.30;99.90;;;;;;5045259;28;20047;-79
2021/12/26 08:08:49;;;;;;;11.00;6.85;;;3.30;99.90;;;;;;5049813;28;20014;-79
2021/12/26 08:11:15;;;;;;;9.55;6.85;;;3.40;99.90;;;;;;5058577;28;20028;-79
2021/12/26 08:13:42;;;;;;;9.90;7.18;;;3.40;99.90;;;;;;5059039;28;20485;-80
2021/12/26 08:16:08;;;;;;;9.85;6.78;;;3.50;99.90;;;;;;5040368;28;20021;-80
2021/12/26 08:18:34;;;;;;;10.35;6.80;;;3.60;99.90;;;;;;5060424;28;20040;-80
2021/12/26 08:21:00;;;;;;;8.88;6.72;;;3.60;99.90;;;;;;5058569;28;20398;-80
2021/12/26 08:23:27;;;;;;;8.82;6.40;;;3.60;99.90;;;;;;5040834;28;20028;-80
2021/12/26 08:25:54;;;;;;;9.13;6.45;;;3.70;99.90;;;;;;5058221;28;20041;-79
2021/12/26 08:28:20;;;;;;;9.38;7.00;;;3.70;99.90;;;;;;5060455;28;20365;-79
2021/12/26 08:30:46;;;;;;;8.48;5.93;;;3.60;99.90;;;;;;5063076;28;20029;-80
2021/12/26 08:33:12;;;;;;;7.45;5.68;;;3.70;99.90;;;;;;5045353;28;20025;-80
2021/12/26 08:35:42;;;;;;;6.70;5.22;;;3.80;99.90;;;;;;5059284;28;20111;-80
2021/12/26 08:38:08;;;;;;;8.30;5.88;;;3.90;99.90;;;;;;5035423;28;20080;-80
2021/12/26 08:40:34;;;;;;;9.43;6.93;;;4.00;99.90;;;;;;5063975;28;20029;-80
2021/12/26 08:43:00;;;;;;;8.68;6.22;;;3.90;99.90;;;;;;5063523;28;20052;-80
2021/12/26 08:45:26;;;;;;;8.32;5.97;;;3.80;99.90;;;;;;5062339;28;20017;-83
2021/12/26 08:47:55;;;;;;;8.55;6.43;;;3.80;99.90;;;;;;5061934;28;20017;-80
2021/12/26 08:50:24;;;;;;;6.75;5.45;;;3.80;99.90;;;;;;5064737;28;20112;-81
2021/12/26 08:52:50;;;;;;;8.20;5.68;;;3.80;99.90;;;;;;5061869;28;20052;-80
2021/12/26 08:55:15;;;;;;;7.45;5.50;;;3.80;99.90;;;;;;5063038;28;20032;-81
2021/12/26 08:57:41;;;;;;;5.85;4.78;;;3.80;99.90;;;;;;5062833;28;20080;-81
2021/12/26 09:00:09;;;;;;;6.72;5.30;;;3.80;99.90;;;;;;5063517;28;20128;-81
2021/12/26 09:02:35;;;;;;;6.95;5.55;;;3.90;99.90;;;;;;5064967;28;20592;-80
2021/12/26 09:05:01;;;;;;;6.10;4.85;;;4.00;99.90;;;;;;5063133;28;20033;-81
2021/12/26 09:07:28;;;;;;;7.53;5.40;;;4.00;99.90;;;;;;5061749;28;20033;-81
2021/12/26 09:09:55;;;;;;;8.77;6.05;;;4.10;99.90;;;;;;5054435;28;20017;-81
2021/12/26 09:12:21;;;;;;;8.15;5.95;;;4.10;99.90;;;;;;5062712;28;20039;-81
2021/12/26 09:14:47;;;;;;;8.65;5.53;;;4.00;99.90;;;;;;5063102;28;20404;-81
2021/12/26 09:17:13;;;;;;;7.43;5.80;;;4.00;99.90;;;;;;5061979;28;20033;-81
2021/12/26 09:19:39;;;;;;;6.93;5.43;;;4.10;99.90;;;;;;5062303;28;20040;-81
2021/12/26 09:22:07;;;;;;;7.93;5.47;;;4.10;99.90;;;;;;5044563;28;20056;-81
2021/12/26 09:24:34;;;;;;;6.43;5.07;;;4.10;99.90;;;;;;5061857;28;20112;-81
2021/12/26 09:27:00;;;;;;;8.27;6.32;;;4.10;99.90;;;;;;5062743;28;20150;-81
2021/12/26 09:29:25;;;;;;;9.48;6.00;;;4.10;99.90;;;;;;5063357;28;20024;-81
2021/12/26 09:31:53;;;;;;;8.40;6.05;;;4.00;99.90;;;;;;5063999;28;20032;-81
2021/12/26 09:34:20;;;;;;;7.65;5.25;;;4.00;99.90;;;;;;5062956;28;20509;-81
2021/12/26 09:36:46;;;;;;;8.45;6.18;;;4.00;99.90;;;;;;5061753;28;20025;-81
2021/12/26 09:39:12;;;;;;;9.18;6.00;;;4.00;99.90;;;;;;5054185;28;20043;-82
2021/12/26 09:41:39;;;;;;;6.70;5.07;;;4.10;99.90;;;;;;5063529;28;20025;-79
2021/12/26 09:44:06;;;;;;;7.55;5.28;;;4.10;99.90;;;;;;5062089;28;20025;-80
2021/12/26 09:46:33;;;;;;;5.13;4.25;;;4.20;99.90;;;;;;5061189;28;20021;-80
2021/12/26 09:48:59;;;;;;;6.07;4.65;;;4.20;99.90;;;;;;5059667;28;20044;-79
2021/12/26 09:51:26;;;;;;;5.45;3.95;;;4.30;99.90;;;;;;5061451;28;20025;-79
2021/12/26 09:53:52;;;;;;;6.63;4.72;;;4.40;99.90;;;;;;5061038;28;20029;-80
2021/12/26 09:56:18;;;;;;;7.10;5.25;;;4.50;99.90;;;;;;5060966;28;20021;-80
2021/12/26 09:58:55;;;;;;;5.80;4.40;;;4.60;99.90;;;;;;5043081;28;20489;-80
2021/12/26 10:01:38;;;;;;;5.20;3.92;;;4.70;99.90;;;;;;5061459;28;20096;-80
2021/12/26 10:04:16;;;;;;;4.55;3.75;;;4.80;99.90;;;;;;5043902;28;20021;-80
2021/12/26 10:06:42;;;;;;;7.88;5.30;;;4.80;99.90;;;;;;5065031;28;20021;-79
2021/12/26 10:09:10;;;;;;;4.97;4.18;;;4.90;99.90;;;;;;5063608;28;20036;-80
2021/12/26 10:11:39;;;;;;;6.95;4.90;;;4.90;99.90;;;;;;5040524;28;20101;-80
2021/12/26 10:14:08;;;;;;;6.38;5.15;;;4.90;99.90;;;;;;5075328;28;20023;-79
2021/12/26 10:19:03;;;;;;;6.28;5.07;;;5.20;99.90;;;;;;5060107;28;20075;-84
2021/12/26 10:46:26;;;;;;;7.93;5.63;;;5.40;99.90;;;;;;5013481;28;20155;-80
2021/12/26 10:48:53;;;;;;;6.45;5.13;;;5.30;99.90;;;;;;5035139;28;20026;-80
2021/12/26 10:51:35;;;;;;;5.30;4.38;;;5.40;99.90;;;;;;5017448;28;20037;-78
2021/12/26 10:54:19;;;;;;;6.03;4.78;;;5.50;99.90;;;;;;5034680;28;20029;-79
2021/12/26 10:57:10;;;;;;;6.60;4.97;;;5.60;99.90;;;;;;5034800;28;20498;-80
2021/12/26 10:59:38;;;;;;;5.68;4.57;;;5.50;99.90;;;;;;5025169;28;20111;-80
2021/12/26 11:02:04;;;;;;;6.25;4.65;;;5.40;99.90;;;;;;5055771;28;20108;-80
2021/12/26 11:04:30;;;;;;;5.10;3.97;;;5.40;99.90;;;;;;5057277;28;20032;-80
2021/12/26 11:07:04;;;;;;;4.30;3.90;;;5.50;99.90;;;;;;5044067;28;20115;-80
2021/12/26 11:09:31;;;;;;;4.60;3.90;;;5.60;99.90;;;;;;5035177;28;20017;-80
2021/12/26 11:12:03;;;;;;;4.95;4.38;;;5.70;99.90;;;;;;5063610;28;20021;-80
2021/12/26 11:14:29;;;;;;;7.85;5.72;;;5.80;99.90;;;;;;5057985;28;20373;-80
2021/12/26 11:16:55;;;;;;;5.55;4.22;;;5.80;99.90;;;;;;5058253;28;20093;-80
2021/12/26 11:19:41;;;;;;;6.65;5.35;;;5.80;99.90;;;;;;5039996;28;20032;-80
2021/12/26 11:22:08;;;;;;;6.97;6.05;;;5.70;99.90;;;;;;5059572;28;20021;-80
2021/12/26 11:24:34;;;;;;;7.68;5.55;;;5.70;99.90;;;;;;5060954;28;20025;-79
2021/12/26 11:27:02;;;;;;;8.15;6.25;;;5.70;99.90;;;;;;5056416;28;20047;-80
2021/12/26 11:29:28;;;;;;;6.82;5.43;;;5.80;99.90;;;;;;5060404;28;20013;-79
2021/12/26 11:31:56;;;;;;;6.88;5.63;;;5.80;99.90;;;;;;5039586;28;20025;-80
2021/12/26 11:34:22;;;;;;;7.47;6.22;;;5.80;99.90;;;;;;5041677;28;20017;-82
2021/12/26 11:36:51;;;;;;;8.40;6.13;;;5.80;99.90;;;;;;5041336;28;20017;-79
2021/12/26 11:39:18;;;;;;;6.07;5.13;;;5.70;99.90;;;;;;5052328;28;20079;-82
2021/12/26 11:41:53;;;;;;;6.28;5.28;;;5.70;99.90;;;;;;5042678;28;20111;-81
2021/12/26 11:44:43;;;;;;;7.13;5.50;;;5.60;99.90;;;;;;5030964;28;20025;-81
2021/12/26 11:47:37;;;;;;;6.85;5.72;;;5.60;99.90;;;;;;5023839;28;20028;-79
2021/12/26 11:50:25;;;;;;;5.50;4.88;;;5.60;99.90;;;;;;5036463;28;20032;-79
2021/12/26 11:53:30;;;;;;;7.25;5.80;;;5.70;99.90;;;;;;5019215;28;20408;-78
2021/12/26 11:56:26;;;;;;;9.05;6.50;;;5.60;99.90;;;;;;5019896;28;20033;-82
2021/12/26 11:59:19;;;;;;;6.50;4.97;;;5.50;99.90;;;;;;5018782;28;20026;-78
2021/12/26 12:01:50;;;;;;;7.53;5.78;;;5.50;99.90;;;;;;5039352;28;20049;-78
2021/12/26 12:04:22;;;;;;;7.63;5.47;;;5.60;99.90;;;;;;5040316;28;20025;-79
2021/12/26 12:06:54;;;;;;;7.32;6.22;;;5.60;99.90;;;;;;5025023;28;20029;-80
2021/12/26 12:09:41;;;;;;;6.78;5.07;;;5.50;99.90;;;;;;5038286;28;20056;-81
2021/12/26 12:12:12;;;;;;;7.40;6.15;;;5.50;99.90;;;;;;5042239;28;20018;-83
2021/12/26 12:14:56;;;;;;;7.95;5.57;;;5.60;99.90;;;;;;5026001;28;20029;-80
2021/12/26 12:17:33;;;;;;;6.03;5.07;;;5.70;99.90;;;;;;5060296;28;20053;-79
2021/12/26 12:20:14;;;;;;;4.70;4.13;;;5.90;99.90;;;;;;5046302;28;20193;-81
2021/12/26 12:23:07;;;;;;;9.00;6.32;;;5.80;99.90;;;;;;5065019;28;20389;-80
2021/12/26 12:25:36;;;;;;;7.15;5.80;;;5.70;99.90;;;;;;5048807;28;20025;-82
2021/12/26 12:28:15;;;;;;;6.55;4.85;;;5.70;99.90;;;;;;5045871;28;20044;-77
2021/12/26 12:30:51;;;;;;;6.90;4.95;;;5.80;99.90;;;;;;5042349;28;20021;-79
2021/12/26 12:33:25;;;;;;;6.93;6.00;;;5.90;99.90;;;;;;5023985;28;20060;-78
2021/12/26 12:35:51;;;;;;;8.07;6.22;;;5.90;99.90;;;;;;5021675;28;20039;-79
2021/12/26 12:38:22;;;;;;;8.25;6.20;;;5.80;99.90;;;;;;5055276;28;20061;-82
2021/12/26 12:40:48;;;;;;;7.38;6.00;;;5.70;99.90;;;;;;5053212;28;20093;-80
2021/12/26 12:43:20;;;;;;;9.93;6.25;;;5.70;99.90;;;;;;5035495;28;20025;-85
2021/12/26 12:45:56;;;;;;;9.77;5.97;;;5.70;99.90;;;;;;5033195;28;20044;-80
2021/12/26 12:48:35;;;;;;;9.15;6.35;;;5.70;99.90;;;;;;5048585;28;20028;-81
2021/12/26 12:51:03;;;;;;;7.63;6.28;;;5.70;99.90;;;;;;5078370;28;20028;-80
2021/12/26 12:53:40;;;;;;;7.68;6.13;;;5.60;99.90;;;;;;5078224;28;20024;-80
2021/12/26 12:56:08;;;;;;;8.00;5.85;;;5.80;99.90;;;;;;5060395;28;20018;-81
2021/12/26 12:58:36;;;;;;;8.55;6.10;;;5.80;99.90;;;;;;5060904;28;20025;-81
2021/12/26 13:01:06;;;;;;;8.02;6.03;;;5.80;99.90;;;;;;5059462;28;20013;-81
2021/12/26 13:03:36;;;;;;;9.15;6.78;;;5.70;99.90;;;;;;5075361;28;20054;-80
2021/12/26 13:06:09;;;;;;;10.15;6.47;;;5.70;99.90;;;;;;5074248;28;20096;-83
2021/12/26 13:08:35;;;;;;;;;;;5.70;99.90;;;;;;5071466;28;20029;-82
2021/12/26 13:11:02;;;;;;;9.45;6.35;;;5.60;99.90;;;;;;5054500;28;19912;-81
2021/12/26 13:13:30;;;;;;;7.65;6.10;;;5.60;99.90;;;;;;5050153;28;20056;-80
2021/12/26 13:15:59;;;;;;;6.93;5.15;;;5.60;99.90;;;;;;5050875;28;20500;-81
2021/12/26 13:18:31;;;;;;;7.47;5.32;;;5.60;99.90;;;;;;5049444;28;20037;-82
2021/12/26 13:21:00;;;;;;;7.07;5.97;;;5.70;99.90;;;;;;5032341;28;20037;-81
2021/12/26 13:23:27;;;;;;;9.32;6.18;;;5.70;99.90;;;;;;5049814;28;20279;-81
2021/12/26 13:25:54;;;;;;;8.80;6.70;;;5.70;99.90;;;;;;5070865;28;20051;-82